sensor_id;sensor_type;location;lat;lon;timestamp;pressure;altitude;pressure_sealevel;temperature;humidity
25232;BME280;13176;51.140;6.290;2023-06-26T00:01:34;100540.16;;;28.38;53.71
25232;BME280;13176;51.140;6.290;2023-06-26T00:04:01;100470.75;;;27.94;53.85
25232;BME280;13176;51.140;6.290;2023-06-26T00:06:31;100490.69;;;28.01;54.15
25232;BME280;13176;51.140;6.290;2023-06-26T00:08:57;100552.22;;;28.23;54.79
25232;BME280;13176;51.140;6.290;2023-06-26T00:11:25;100459.22;;;27.53;54.32
25232;BME280;13176;51.140;6.290;2023-06-26T00:13:53;100553.94;;;28.24;54.83
25232;BME280;13176;51.140;6.290;2023-06-26T00:16:22;100375.53;;;27.19;54.36
25232;BME280;13176;51.140;6.290;2023-06-26T00:18:49;100433.09;;;27.45;54.32
25232;BME280;13176;51.140;6.290;2023-06-26T00:21:15;100432.09;;;27.46;53.54
25232;BME280;13176;51.140;6.290;2023-06-26T00:23:42;100541.38;;;27.94;54.71
25232;BME280;13176;51.140;6.290;2023-06-26T00:26:20;100492.13;;;27.75;53.74
25232;BME280;13176;51.140;6.290;2023-06-26T00:28:46;100476.66;;;27.58;54.09
25232;BME280;13176;51.140;6.290;2023-06-26T00:31:13;100520.94;;;27.73;54.32
25232;BME280;13176;51.140;6.290;2023-06-26T00:33:40;100542.59;;;27.81;54.67
25232;BME280;13176;51.140;6.290;2023-06-26T00:36:07;100429.41;;;27.16;54.77
25232;BME280;13176;51.140;6.290;2023-06-26T00:38:35;100550.38;;;27.84;54.91
25232;BME280;13176;51.140;6.290;2023-06-26T00:41:01;100426.44;;;26.99;55.38
25232;BME280;13176;51.140;6.290;2023-06-26T00:43:28;100439.22;;;27.06;55.02
25232;BME280;13176;51.140;6.290;2023-06-26T00:45:55;100546.84;;;27.63;55.27
25232;BME280;13176;51.140;6.290;2023-06-26T00:48:24;100461.31;;;27.19;55.07
25232;BME280;13176;51.140;6.290;2023-06-26T00:50:50;100482.16;;;27.36;54.59
25232;BME280;13176;51.140;6.290;2023-06-26T00:53:17;100422.38;;;27.04;54.20
25232;BME280;13176;51.140;6.290;2023-06-26T00:55:44;100498.69;;;27.41;54.88
25232;BME280;13176;51.140;6.290;2023-06-26T00:58:11;100434.75;;;26.96;55.02
25232;BME280;13176;51.140;6.290;2023-06-26T01:00:39;100377.56;;;26.66;55.61
25232;BME280;13176;51.140;6.290;2023-06-26T01:03:06;100472.03;;;27.19;55.76
25232;BME280;13176;51.140;6.290;2023-06-26T01:05:32;100537.63;;;27.56;55.14
25232;BME280;13176;51.140;6.290;2023-06-26T01:07:59;100505.50;;;27.45;55.38
25232;BME280;13176;51.140;6.290;2023-06-26T01:10:29;100502.81;;;27.45;55.33
25232;BME280;13176;51.140;6.290;2023-06-26T01:12:56;100351.38;;;26.49;55.27
25232;BME280;13176;51.140;6.290;2023-06-26T01:15:23;100472.13;;;26.97;55.29
25232;BME280;13176;51.140;6.290;2023-06-26T01:17:50;100482.84;;;26.97;53.93
25232;BME280;13176;51.140;6.290;2023-06-26T01:20:18;100481.59;;;27.12;55.08
25232;BME280;13176;51.140;6.290;2023-06-26T01:22:57;100552.28;;;27.52;53.79
25232;BME280;13176;51.140;6.290;2023-06-26T01:28:31;100534.53;;;27.40;52.93
25232;BME280;13176;51.140;6.290;2023-06-26T01:31:00;100553.25;;;27.51;53.45
25232;BME280;13176;51.140;6.290;2023-06-26T01:33:28;100534.53;;;27.40;53.13
25232;BME280;13176;51.140;6.290;2023-06-26T01:35:55;100433.97;;;26.84;52.73
25232;BME280;13176;51.140;6.290;2023-06-26T01:38:22;100513.75;;;27.33;50.51
25232;BME280;13176;51.140;6.290;2023-06-26T01:40:57;100469.59;;;26.96;51.70
25232;BME280;13176;51.140;6.290;2023-06-26T01:43:57;100542.06;;;27.46;50.73
25232;BME280;13176;51.140;6.290;2023-06-26T01:51:38;100429.78;;;26.91;51.09
25232;BME280;13176;51.140;6.290;2023-06-26T01:54:17;100449.69;;;27.09;49.76
25232;BME280;13176;51.140;6.290;2023-06-26T01:56:46;100373.06;;;26.46;49.94
25232;BME280;13176;51.140;6.290;2023-06-26T01:59:19;100545.53;;;27.37;49.53
25232;BME280;13176;51.140;6.290;2023-06-26T02:01:47;100570.63;;;27.36;50.66
25232;BME280;13176;51.140;6.290;2023-06-26T02:04:14;100397.28;;;26.33;50.33
25232;BME280;13176;51.140;6.290;2023-06-26T02:06:41;100478.09;;;26.69;50.78
25232;BME280;13176;51.140;6.290;2023-06-26T02:09:07;100371.00;;;26.07;51.14
25232;BME280;13176;51.140;6.290;2023-06-26T02:11:34;100556.16;;;26.96;50.74
25232;BME280;13176;51.140;6.290;2023-06-26T02:14:00;100454.84;;;26.28;51.39
25232;BME280;13176;51.140;6.290;2023-06-26T02:16:27;100565.75;;;26.78;50.59
25232;BME280;13176;51.140;6.290;2023-06-26T02:18:53;100521.28;;;26.45;51.01
25232;BME280;13176;51.140;6.290;2023-06-26T02:21:22;100460.25;;;26.06;52.21
25232;BME280;13176;51.140;6.290;2023-06-26T02:23:49;100512.00;;;26.38;52.71
25232;BME280;13176;51.140;6.290;2023-06-26T02:26:15;100447.38;;;25.89;52.40
25232;BME280;13176;51.140;6.290;2023-06-26T02:28:41;100520.78;;;26.29;53.13
25232;BME280;13176;51.140;6.290;2023-06-26T02:31:08;100551.34;;;26.37;54.13
25232;BME280;13176;51.140;6.290;2023-06-26T02:33:34;100576.03;;;26.41;53.93
25232;BME280;13176;51.140;6.290;2023-06-26T02:36:01;100463.91;;;25.61;53.13
25232;BME280;13176;51.140;6.290;2023-06-26T02:38:28;100572.16;;;26.12;54.28
25232;BME280;13176;51.140;6.290;2023-06-26T02:40:55;100543.66;;;25.78;54.80
25232;BME280;13176;51.140;6.290;2023-06-26T02:43:22;100596.72;;;26.06;55.07
25232;BME280;13176;51.140;6.290;2023-06-26T02:45:48;100489.91;;;25.37;55.67
25232;BME280;13176;51.140;6.290;2023-06-26T02:48:14;100585.03;;;25.85;56.17
25232;BME280;13176;51.140;6.290;2023-06-26T02:50:41;100541.44;;;25.61;56.18
25232;BME280;13176;51.140;6.290;2023-06-26T02:53:08;100538.50;;;25.53;56.78
25232;BME280;13176;51.140;6.290;2023-06-26T02:55:35;100497.16;;;25.24;56.96
25232;BME280;13176;51.140;6.290;2023-06-26T02:58:01;100607.53;;;25.82;56.53
25232;BME280;13176;51.140;6.290;2023-06-26T03:00:27;100534.41;;;25.49;56.93
25232;BME280;13176;51.140;6.290;2023-06-26T03:02:56;100480.34;;;25.11;56.61
25232;BME280;13176;51.140;6.290;2023-06-26T03:05:23;100614.41;;;25.74;56.81
25232;BME280;13176;51.140;6.290;2023-06-26T03:07:50;100523.41;;;25.30;56.88
25232;BME280;13176;51.140;6.290;2023-06-26T03:10:16;100617.25;;;25.83;57.42
25232;BME280;13176;51.140;6.290;2023-06-26T03:12:44;100546.72;;;25.28;56.57
25232;BME280;13176;51.140;6.290;2023-06-26T03:15:10;100508.53;;;25.15;56.88
25232;BME280;13176;51.140;6.290;2023-06-26T03:17:37;100553.78;;;25.29;56.75
25232;BME280;13176;51.140;6.290;2023-06-26T03:20:04;100618.25;;;25.59;57.00
25232;BME280;13176;51.140;6.290;2023-06-26T03:22:33;100601.94;;;25.51;56.95
25232;BME280;13176;51.140;6.290;2023-06-26T03:25:04;100607.78;;;25.45;56.54
25232;BME280;13176;51.140;6.290;2023-06-26T03:27:31;100450.38;;;24.50;56.03
25232;BME280;13176;51.140;6.290;2023-06-26T03:29:57;100634.31;;;25.36;56.28
25232;BME280;13176;51.140;6.290;2023-06-26T03:32:24;100595.31;;;25.10;55.50
25232;BME280;13176;51.140;6.290;2023-06-26T03:34:50;100518.47;;;24.55;55.95
25232;BME280;13176;51.140;6.290;2023-06-26T03:37:17;100505.13;;;24.55;55.60
25232;BME280;13176;51.140;6.290;2023-06-26T03:39:44;100532.03;;;24.76;55.79
25232;BME280;13176;51.140;6.290;2023-06-26T03:42:13;100564.47;;;24.82;56.59
25232;BME280;13176;51.140;6.290;2023-06-26T03:44:39;100616.81;;;25.08;56.62
25232;BME280;13176;51.140;6.290;2023-06-26T03:47:05;100637.81;;;25.25;56.07
25232;BME280;13176;51.140;6.290;2023-06-26T03:49:32;100644.53;;;25.31;56.12
25232;BME280;13176;51.140;6.290;2023-06-26T03:51:58;100600.06;;;25.06;56.14
25232;BME280;13176;51.140;6.290;2023-06-26T03:54:25;100504.41;;;24.41;56.49
25232;BME280;13176;51.140;6.290;2023-06-26T03:56:52;100658.38;;;25.12;56.95
25232;BME280;13176;51.140;6.290;2023-06-26T03:59:18;100645.53;;;25.17;56.42
25232;BME280;13176;51.140;6.290;2023-06-26T04:01:45;100634.72;;;24.95;56.04
25232;BME280;13176;51.140;6.290;2023-06-26T04:04:11;100662.69;;;25.02;55.30
25232;BME280;13176;51.140;6.290;2023-06-26T04:06:38;100671.06;;;25.21;55.21
25232;BME280;13176;51.140;6.290;2023-06-26T04:09:05;100675.22;;;25.25;54.79
25232;BME280;13176;51.140;6.290;2023-06-26T04:11:32;100644.59;;;24.82;54.37
25232;BME280;13176;51.140;6.290;2023-06-26T04:14:01;100617.00;;;24.58;54.03
25232;BME280;13176;51.140;6.290;2023-06-26T04:16:30;100536.59;;;24.15;54.11
25232;BME280;13176;51.140;6.290;2023-06-26T04:18:57;100568.00;;;24.59;54.55
25232;BME280;13176;51.140;6.290;2023-06-26T04:21:23;100672.78;;;25.22;54.43
25232;BME280;13176;51.140;6.290;2023-06-26T04:23:52;100646.97;;;24.98;54.35
25232;BME280;13176;51.140;6.290;2023-06-26T04:26:19;100520.91;;;24.23;55.32
25232;BME280;13176;51.140;6.290;2023-06-26T04:28:45;100580.03;;;24.65;55.01
25232;BME280;13176;51.140;6.290;2023-06-26T04:31:13;100648.81;;;24.97;56.00
25232;BME280;13176;51.140;6.290;2023-06-26T04:33:40;100569.53;;;24.38;57.06
25232;BME280;13176;51.140;6.290;2023-06-26T04:36:09;100699.22;;;25.02;57.83
25232;BME280;13176;51.140;6.290;2023-06-26T04:38:35;100592.47;;;24.53;58.28
25232;BME280;13176;51.140;6.290;2023-06-26T04:41:02;100656.31;;;24.92;58.36
25232;BME280;13176;51.140;6.290;2023-06-26T04:43:28;100650.78;;;24.83;59.10
25232;BME280;13176;51.140;6.290;2023-06-26T04:45:56;100704.56;;;25.02;59.60
25232;BME280;13176;51.140;6.290;2023-06-26T04:48:22;100592.34;;;24.42;59.29
25232;BME280;13176;51.140;6.290;2023-06-26T04:50:56;100688.00;;;24.97;59.03
25232;BME280;13176;51.140;6.290;2023-06-26T04:53:23;100698.16;;;25.04;59.07
25232;BME280;13176;51.140;6.290;2023-06-26T04:55:50;100689.63;;;24.99;58.77
25232;BME280;13176;51.140;6.290;2023-06-26T04:58:17;100688.28;;;24.94;58.99
25232;BME280;13176;51.140;6.290;2023-06-26T05:00:44;100714.88;;;24.83;58.72
25232;BME280;13176;51.140;6.290;2023-06-26T05:03:16;100630.56;;;24.55;58.66
25232;BME280;13176;51.140;6.290;2023-06-26T05:05:44;100622.72;;;24.17;59.10
25232;BME280;13176;51.140;6.290;2023-06-26T05:10:42;100572.13;;;23.78;59.67
25232;BME280;13176;51.140;6.290;2023-06-26T05:13:09;100524.16;;;23.28;59.42
25232;BME280;13176;51.140;6.290;2023-06-26T05:15:36;100562.97;;;23.44;59.36
25232;BME280;13176;51.140;6.290;2023-06-26T05:18:03;100719.81;;;24.64;58.65
25232;BME280;13176;51.140;6.290;2023-06-26T05:20:29;100649.78;;;24.23;59.09
25232;BME280;13176;51.140;6.290;2023-06-26T05:22:56;100733.88;;;24.78;58.99
25232;BME280;13176;51.140;6.290;2023-06-26T05:25:23;100712.78;;;24.75;58.64
25232;BME280;13176;51.140;6.290;2023-06-26T05:27:50;100713.00;;;24.72;58.80
25232;BME280;13176;51.140;6.290;2023-06-26T05:30:19;100737.31;;;24.80;58.63
25232;BME280;13176;51.140;6.290;2023-06-26T05:32:47;100742.75;;;24.91;58.04
25232;BME280;13176;51.140;6.290;2023-06-26T05:35:15;100496.25;;;23.46;57.78
25232;BME280;13176;51.140;6.290;2023-06-26T05:37:43;100726.22;;;24.74;58.07
25232;BME280;13176;51.140;6.290;2023-06-26T05:40:10;100737.78;;;24.74;58.65
25232;BME280;13176;51.140;6.290;2023-06-26T05:42:38;100683.09;;;24.42;58.54
25232;BME280;13176;51.140;6.290;2023-06-26T05:45:05;100641.59;;;24.01;59.05
25232;BME280;13176;51.140;6.290;2023-06-26T05:47:32;100578.09;;;23.69;58.89
25232;BME280;13176;51.140;6.290;2023-06-26T05:49:58;100664.75;;;24.26;58.68
25232;BME280;13176;51.140;6.290;2023-06-26T05:52:25;100754.00;;;24.71;58.99
25232;BME280;13176;51.140;6.290;2023-06-26T05:54:52;100734.53;;;24.20;60.74
25232;BME280;13176;51.140;6.290;2023-06-26T05:57:18;100690.06;;;24.20;59.52
25232;BME280;13176;51.140;6.290;2023-06-26T05:59:46;100748.22;;;24.40;60.17
25232;BME280;13176;51.140;6.290;2023-06-26T06:02:12;100740.53;;;24.35;60.11
25232;BME280;13176;51.140;6.290;2023-06-26T06:04:39;100751.66;;;24.54;60.02
25232;BME280;13176;51.140;6.290;2023-06-26T06:07:08;100777.03;;;24.35;60.72
25232;BME280;13176;51.140;6.290;2023-06-26T06:09:34;100746.16;;;24.43;60.42
25232;BME280;13176;51.140;6.290;2023-06-26T06:12:01;100662.94;;;23.50;61.28
25232;BME280;13176;51.140;6.290;2023-06-26T06:14:27;100752.97;;;23.98;61.72
25232;BME280;13176;51.140;6.290;2023-06-26T06:16:54;100637.00;;;23.27;61.86
25232;BME280;13176;51.140;6.290;2023-06-26T06:19:22;100759.50;;;24.31;61.36
25232;BME280;13176;51.140;6.290;2023-06-26T06:21:49;100669.75;;;23.80;60.98
25232;BME280;13176;51.140;6.290;2023-06-26T06:24:15;100775.75;;;24.40;61.82
25232;BME280;13176;51.140;6.290;2023-06-26T06:26:42;100765.75;;;24.56;61.16
25232;BME280;13176;51.140;6.290;2023-06-26T06:29:08;100713.19;;;24.07;60.54
25232;BME280;13176;51.140;6.290;2023-06-26T06:31:34;100740.75;;;24.32;60.30
25232;BME280;13176;51.140;6.290;2023-06-26T06:34:01;100774.94;;;24.52;60.68
25232;BME280;13176;51.140;6.290;2023-06-26T06:36:30;100779.53;;;24.50;60.57
25232;BME280;13176;51.140;6.290;2023-06-26T06:38:57;100803.75;;;24.47;60.47
25232;BME280;13176;51.140;6.290;2023-06-26T06:41:23;100797.78;;;24.56;60.32
25232;BME280;13176;51.140;6.290;2023-06-26T06:43:50;100684.50;;;23.72;60.59
25232;BME280;13176;51.140;6.290;2023-06-26T06:46:16;100719.88;;;23.88;61.10
25232;BME280;13176;51.140;6.290;2023-06-26T06:48:43;100800.97;;;24.36;61.60
25232;BME280;13176;51.140;6.290;2023-06-26T06:51:09;100768.94;;;24.36;60.70
25232;BME280;13176;51.140;6.290;2023-06-26T06:53:36;100810.38;;;24.79;60.25
25232;BME280;13176;51.140;6.290;2023-06-26T06:56:02;100818.72;;;24.62;60.44
25232;BME280;13176;51.140;6.290;2023-06-26T06:58:29;100759.13;;;24.49;60.00
25232;BME280;13176;51.140;6.290;2023-06-26T07:01:00;100702.63;;;24.06;59.48
25232;BME280;13176;51.140;6.290;2023-06-26T07:03:28;100831.00;;;25.02;59.44
25232;BME280;13176;51.140;6.290;2023-06-26T07:05:57;100824.03;;;25.00;59.27
25232;BME280;13176;51.140;6.290;2023-06-26T07:08:24;100799.72;;;24.54;59.16
25232;BME280;13176;51.140;6.290;2023-06-26T07:10:50;100786.34;;;24.79;59.05
25232;BME280;13176;51.140;6.290;2023-06-26T07:13:17;100850.56;;;24.65;59.90
25232;BME280;13176;51.140;6.290;2023-06-26T07:15:45;100741.59;;;24.33;59.40
25232;BME280;13176;51.140;6.290;2023-06-26T07:18:12;100829.34;;;24.37;60.35
25232;BME280;13176;51.140;6.290;2023-06-26T07:20:38;100749.16;;;24.14;60.21
25232;BME280;13176;51.140;6.290;2023-06-26T07:23:05;100818.50;;;24.65;59.86
25232;BME280;13176;51.140;6.290;2023-06-26T07:25:31;100738.16;;;24.43;59.46
25232;BME280;13176;51.140;6.290;2023-06-26T07:27:58;100821.69;;;25.08;58.99
25232;BME280;13176;51.140;6.290;2023-06-26T07:30:24;100797.53;;;24.97;58.50
25232;BME280;13176;51.140;6.290;2023-06-26T07:32:51;100840.47;;;25.31;57.81
25232;BME280;13176;51.140;6.290;2023-06-26T07:35:17;100847.22;;;25.24;58.05
25232;BME280;13176;51.140;6.290;2023-06-26T07:37:43;100719.84;;;24.51;57.16
25232;BME280;13176;51.140;6.290;2023-06-26T07:40:10;100770.34;;;24.54;57.55
25232;BME280;13176;51.140;6.290;2023-06-26T07:42:37;100859.31;;;25.17;57.88
25232;BME280;13176;51.140;6.290;2023-06-26T07:45:04;100883.09;;;25.57;56.76
25232;BME280;13176;51.140;6.290;2023-06-26T07:47:38;100824.34;;;25.20;56.52
25232;BME280;13176;51.140;6.290;2023-06-26T07:50:05;100901.16;;;25.54;57.13
25232;BME280;13176;51.140;6.290;2023-06-26T07:52:31;100881.03;;;25.61;56.48
25232;BME280;13176;51.140;6.290;2023-06-26T07:54:58;100798.44;;;24.72;56.20
25232;BME280;13176;51.140;6.290;2023-06-26T07:57:25;100813.16;;;24.78;57.43
25232;BME280;13176;51.140;6.290;2023-06-26T07:59:51;100862.09;;;25.03;56.69
25232;BME280;13176;51.140;6.290;2023-06-26T08:02:17;100820.84;;;24.57;57.18
25232;BME280;13176;51.140;6.290;2023-06-26T08:04:46;100900.03;;;25.08;57.00
25232;BME280;13176;51.140;6.290;2023-06-26T08:07:16;100835.00;;;24.45;57.32
25232;BME280;13176;51.140;6.290;2023-06-26T08:09:42;100831.91;;;24.39;57.31
25232;BME280;13176;51.140;6.290;2023-06-26T08:12:12;100829.94;;;24.55;57.52
25232;BME280;13176;51.140;6.290;2023-06-26T08:14:39;100904.63;;;25.06;57.29
25232;BME280;13176;51.140;6.290;2023-06-26T08:17:05;100883.66;;;25.00;57.13
25232;BME280;13176;51.140;6.290;2023-06-26T08:19:34;100812.09;;;24.80;57.17
25232;BME280;13176;51.140;6.290;2023-06-26T08:22:00;100804.94;;;24.68;56.48
25232;BME280;13176;51.140;6.290;2023-06-26T08:24:27;100795.66;;;24.61;57.23
25232;BME280;13176;51.140;6.290;2023-06-26T08:26:53;100915.28;;;25.56;56.48
25232;BME280;13176;51.140;6.290;2023-06-26T08:29:20;100893.72;;;25.34;56.98
25232;BME280;13176;51.140;6.290;2023-06-26T08:31:46;100879.28;;;25.12;56.66
25232;BME280;13176;51.140;6.290;2023-06-26T08:34:13;100800.75;;;24.39;56.95
25232;BME280;13176;51.140;6.290;2023-06-26T08:36:39;100880.78;;;25.03;56.57
25232;BME280;13176;51.140;6.290;2023-06-26T08:39:06;100932.63;;;25.38;55.90
25232;BME280;13176;51.140;6.290;2023-06-26T08:41:40;100749.50;;;24.34;55.64
25232;BME280;13176;51.140;6.290;2023-06-26T08:44:06;100933.69;;;24.98;56.15
25232;BME280;13176;51.140;6.290;2023-06-26T08:46:33;100846.28;;;24.75;55.57
25232;BME280;13176;51.140;6.290;2023-06-26T08:49:04;100942.97;;;25.80;55.90
25232;BME280;13176;51.140;6.290;2023-06-26T08:51:33;100876.19;;;25.30;54.82
25232;BME280;13176;51.140;6.290;2023-06-26T08:54:06;100822.34;;;25.11;54.50
25232;BME280;13176;51.140;6.290;2023-06-26T08:56:41;100790.91;;;25.02;54.14
25232;BME280;13176;51.140;6.290;2023-06-26T08:59:09;100906.28;;;25.82;54.02
25232;BME280;13176;51.140;6.290;2023-06-26T09:01:40;100935.94;;;26.02;54.19
25232;BME280;13176;51.140;6.290;2023-06-26T09:04:07;100833.38;;;25.43;53.95
25232;BME280;13176;51.140;6.290;2023-06-26T09:06:34;100915.31;;;26.15;53.62
25232;BME280;13176;51.140;6.290;2023-06-26T09:09:03;100846.88;;;25.77;54.22
25232;BME280;13176;51.140;6.290;2023-06-26T09:11:30;100924.09;;;26.17;52.92
25232;BME280;13176;51.140;6.290;2023-06-26T09:13:57;100843.03;;;25.81;53.11
25232;BME280;13176;51.140;6.290;2023-06-26T09:16:26;100929.13;;;26.22;53.07
25232;BME280;13176;51.140;6.290;2023-06-26T09:18:53;100945.44;;;26.30;53.63
25232;BME280;13176;51.140;6.290;2023-06-26T09:21:21;100927.44;;;25.85;52.05
25232;BME280;13176;51.140;6.290;2023-06-26T09:23:49;100932.69;;;26.10;52.48
25232;BME280;13176;51.140;6.290;2023-06-26T09:26:17;100848.44;;;25.79;52.32
25232;BME280;13176;51.140;6.290;2023-06-26T09:28:43;100924.75;;;26.21;51.50
25232;BME280;13176;51.140;6.290;2023-06-26T09:31:10;100839.06;;;25.74;51.07
25232;BME280;13176;51.140;6.290;2023-06-26T09:33:40;100948.06;;;26.55;51.48
25232;BME280;13176;51.140;6.290;2023-06-26T09:36:19;100919.84;;;26.15;51.52
25232;BME280;13176;51.140;6.290;2023-06-26T09:38:46;100932.13;;;26.41;51.24
25232;BME280;13176;51.140;6.290;2023-06-26T09:41:16;100951.00;;;26.39;50.54
25232;BME280;13176;51.140;6.290;2023-06-26T09:43:50;100956.16;;;26.76;50.83
25232;BME280;13176;51.140;6.290;2023-06-26T09:46:29;100963.50;;;26.85;50.26
25232;BME280;13176;51.140;6.290;2023-06-26T09:49:07;100972.97;;;26.78;49.55
25232;BME280;13176;51.140;6.290;2023-06-26T09:51:35;100951.09;;;26.38;50.47
25232;BME280;13176;51.140;6.290;2023-06-26T09:54:03;100945.00;;;26.36;49.99
25232;BME280;13176;51.140;6.290;2023-06-26T09:56:31;100970.50;;;26.29;49.13
25232;BME280;13176;51.140;6.290;2023-06-26T09:59:01;100968.31;;;26.69;48.65
25232;BME280;13176;51.140;6.290;2023-06-26T10:01:28;100962.22;;;26.67;48.31
25232;BME280;13176;51.140;6.290;2023-06-26T10:03:57;100910.38;;;26.22;47.63
25232;BME280;13176;51.140;6.290;2023-06-26T10:06:28;100968.59;;;26.77;47.18
25232;BME280;13176;51.140;6.290;2023-06-26T10:08:59;100948.19;;;26.41;47.19
25232;BME280;13176;51.140;6.290;2023-06-26T10:11:35;100892.78;;;26.07;48.19
25232;BME280;13176;51.140;6.290;2023-06-26T10:14:04;100918.81;;;26.05;48.45
25232;BME280;13176;51.140;6.290;2023-06-26T10:16:44;100970.28;;;26.32;46.18
25232;BME280;13176;51.140;6.290;2023-06-26T10:19:13;100956.00;;;26.20;46.70
25232;BME280;13176;51.140;6.290;2023-06-26T10:21:41;100828.59;;;25.71;47.14
25232;BME280;13176;51.140;6.290;2023-06-26T10:24:08;100890.66;;;26.23;47.15
25232;BME280;13176;51.140;6.290;2023-06-26T10:26:42;100935.44;;;26.44;43.94
25232;BME280;13176;51.140;6.290;2023-06-26T10:29:09;100905.41;;;26.05;43.71
25232;BME280;13176;51.140;6.290;2023-06-26T10:31:38;100943.19;;;26.13;43.50
25232;BME280;13176;51.140;6.290;2023-06-26T10:34:06;100797.94;;;25.28;43.37
25232;BME280;13176;51.140;6.290;2023-06-26T10:36:35;100890.09;;;26.54;43.20
25232;BME280;13176;51.140;6.290;2023-06-26T10:39:04;100939.16;;;26.88;41.94
25232;BME280;13176;51.140;6.290;2023-06-26T10:41:38;100833.91;;;26.86;42.56
25232;BME280;13176;51.140;6.290;2023-06-26T10:44:22;100871.59;;;27.18;41.70
25232;BME280;13176;51.140;6.290;2023-06-26T10:46:52;100975.34;;;27.28;40.36
25232;BME280;13176;51.140;6.290;2023-06-26T10:49:20;100946.41;;;27.21;41.00
25232;BME280;13176;51.140;6.290;2023-06-26T10:51:51;101001.09;;;27.07;41.34
25232;BME280;13176;51.140;6.290;2023-06-26T10:54:18;100992.16;;;27.41;42.02
25232;BME280;13176;51.140;6.290;2023-06-26T10:56:50;101013.84;;;27.38;41.11
25232;BME280;13176;51.140;6.290;2023-06-26T10:59:18;101010.16;;;27.74;43.11
25232;BME280;13176;51.140;6.290;2023-06-26T11:01:53;100998.03;;;27.57;42.57
25232;BME280;13176;51.140;6.290;2023-06-26T11:04:39;100983.59;;;27.36;41.80
25232;BME280;13176;51.140;6.290;2023-06-26T11:07:22;101004.88;;;27.83;41.18
25232;BME280;13176;51.140;6.290;2023-06-26T11:10:07;100916.56;;;27.47;42.16
25232;BME280;13176;51.140;6.290;2023-06-26T11:12:41;100978.41;;;27.46;41.48
25232;BME280;13176;51.140;6.290;2023-06-26T11:15:17;101015.00;;;27.69;41.73
25232;BME280;13176;51.140;6.290;2023-06-26T11:17:49;100933.84;;;27.10;41.16
25232;BME280;13176;51.140;6.290;2023-06-26T11:20:16;101020.25;;;27.70;40.91
25232;BME280;13176;51.140;6.290;2023-06-26T11:22:43;100829.06;;;26.12;40.67
25232;BME280;13176;51.140;6.290;2023-06-26T11:25:11;100936.00;;;26.94;40.63
25232;BME280;13176;51.140;6.290;2023-06-26T11:30:05;101019.72;;;27.54;38.88
25232;BME280;13176;51.140;6.290;2023-06-26T11:32:32;100980.97;;;27.69;40.28
25232;BME280;13176;51.140;6.290;2023-06-26T11:35:00;101005.34;;;28.10;38.52
25232;BME280;13176;51.140;6.290;2023-06-26T11:37:27;101020.97;;;28.16;36.65
25232;BME280;13176;51.140;6.290;2023-06-26T11:39:54;101012.16;;;28.25;36.92
25232;BME280;13176;51.140;6.290;2023-06-26T11:42:21;101033.19;;;27.76;34.75
25232;BME280;13176;51.140;6.290;2023-06-26T11:44:47;101020.00;;;28.17;33.79
25232;BME280;13176;51.140;6.290;2023-06-26T11:47:18;100961.31;;;27.58;33.11
25232;BME280;13176;51.140;6.290;2023-06-26T11:49:49;101034.88;;;28.10;34.87
25232;BME280;13176;51.140;6.290;2023-06-26T11:52:16;100930.94;;;27.35;35.40
25232;BME280;13176;51.140;6.290;2023-06-26T11:54:43;100931.19;;;27.10;35.51
25232;BME280;13176;51.140;6.290;2023-06-26T11:57:13;101040.75;;;27.82;35.46
25232;BME280;13176;51.140;6.290;2023-06-26T11:59:41;101048.31;;;27.88;35.58
25232;BME280;13176;51.140;6.290;2023-06-26T12:02:10;101052.47;;;27.81;36.24
25232;BME280;13176;51.140;6.290;2023-06-26T12:04:38;101042.44;;;27.61;35.26
25232;BME280;13176;51.140;6.290;2023-06-26T12:07:07;100987.47;;;27.10;34.91
25232;BME280;13176;51.140;6.290;2023-06-26T12:09:40;101055.69;;;27.06;35.30
25232;BME280;13176;51.140;6.290;2023-06-26T12:12:08;100989.00;;;26.67;36.70
25232;BME280;13176;51.140;6.290;2023-06-26T12:14:35;100899.44;;;25.53;35.41
25232;BME280;13176;51.140;6.290;2023-06-26T12:17:09;101076.94;;;26.97;35.75
25232;BME280;13176;51.140;6.290;2023-06-26T12:19:37;101095.25;;;27.26;34.67
25232;BME280;13176;51.140;6.290;2023-06-26T12:22:07;101065.75;;;27.26;34.59
25232;BME280;13176;51.140;6.290;2023-06-26T12:24:37;100897.84;;;25.99;34.07
25232;BME280;13176;51.140;6.290;2023-06-26T12:27:12;100967.72;;;26.77;35.01
25232;BME280;13176;51.140;6.290;2023-06-26T12:29:45;100967.13;;;27.08;34.40
25232;BME280;13176;51.140;6.290;2023-06-26T12:32:14;101092.50;;;27.95;32.31
25232;BME280;13176;51.140;6.290;2023-06-26T12:34:41;101062.25;;;28.04;33.04
25232;BME280;13176;51.140;6.290;2023-06-26T12:37:09;101013.31;;;27.79;31.92
25232;BME280;13176;51.140;6.290;2023-06-26T12:42:23;101067.88;;;28.34;31.52
25232;BME280;13176;51.140;6.290;2023-06-26T12:44:51;100968.78;;;27.65;30.28
25232;BME280;13176;51.140;6.290;2023-06-26T12:47:23;101093.38;;;28.39;31.83
25232;BME280;13176;51.140;6.290;2023-06-26T12:49:51;101082.00;;;28.25;30.97
25232;BME280;13176;51.140;6.290;2023-06-26T12:52:18;100897.81;;;27.25;30.90
25232;BME280;13176;51.140;6.290;2023-06-26T12:54:47;101083.22;;;27.88;30.11
25232;BME280;13176;51.140;6.290;2023-06-26T12:57:17;100996.81;;;27.50;31.15
25232;BME280;13176;51.140;6.290;2023-06-26T12:59:44;101076.84;;;27.78;31.20
25232;BME280;13176;51.140;6.290;2023-06-26T13:02:11;101060.00;;;27.65;32.51
25232;BME280;13176;51.140;6.290;2023-06-26T13:04:37;101029.91;;;27.16;31.54
25232;BME280;13176;51.140;6.290;2023-06-26T13:07:08;101095.63;;;27.33;32.47
25232;BME280;13176;51.140;6.290;2023-06-26T13:09:35;100978.63;;;26.97;33.38
25232;BME280;13176;51.140;6.290;2023-06-26T13:12:04;101071.63;;;27.42;33.46